Terminal Aerodrome Forecast
Issued by NWS

Home | Current Version | Previous Version | Text Only | Print | Product List | Glossary On
Versions: 1 2 3 4 5 6 7 8 9 10 11 12 13 14 15 16 17 18
219
FTUS42 KMLB 242015 AAA
TAFLEE
TAF AMD
KLEE 242015Z 2420/2518 10011G17KT P6SM FEW045 SCT060
     FM250000 07006KT P6SM SCT035
     FM251500 11012KT P6SM SCT040=

USA.gov is the U.S. government's official web portal to all federal, state and local government web resources and services.